Terminal Aerodrome Forecast
Issued by NWS Tampa Bay Area, FL

Home | Current Version | Previous Version | Text Only | Print | Product List | Glossary On
Versions: 1 2 3 4 5 6 7 8 9 10 11 12 13 14 15 16 17 18 19 20 21 22 23 24 25 26 27 28 29
000
FTUS42 KTBW 051100
TAFTPA
TAF
KTPA 051140Z 0512/0612 15004KT 6SM BR SCT008 BKN020
      TEMPO 0512/0514 3SM BR BKN004 OVC020
     FM051500 18009KT P6SM FEW020 SCT040
     FM051800 20013KT P6SM FEW045 SCT250
     FM060100 24005KT P6SM FEW020 SCT250
     FM060400 VRB03KT P6SM FEW020 SCT250=

USA.gov is the U.S. government's official web portal to all federal, state and local government web resources and services.